createdAt,value
2024-03-03T00:02:22.861Z,22.18
2024-03-03T00:04:49.212Z,22.18
2024-03-03T00:07:15.695Z,22.17
2024-03-03T00:09:42.155Z,22.17
2024-03-03T00:12:08.503Z,22.16
2024-03-03T00:14:34.933Z,22.17
2024-03-03T00:17:01.348Z,22.16
2024-03-03T00:19:27.677Z,22.17
2024-03-03T00:21:54.093Z,22.16
2024-03-03T00:24:20.469Z,22.16
2024-03-03T00:26:46.801Z,22.18
2024-03-03T00:29:13.234Z,22.16
2024-03-03T00:31:39.639Z,22.17
2024-03-03T00:34:08.260Z,22.16
2024-03-03T00:36:34.551Z,22.15
2024-03-03T00:39:00.887Z,22.15
2024-03-03T00:41:27.350Z,22.15
2024-03-03T00:43:53.776Z,22.15
2024-03-03T00:46:20.292Z,22.14
2024-03-03T00:48:46.657Z,22.15
2024-03-03T00:51:13.057Z,22.15
2024-03-03T00:53:39.518Z,22.15
2024-03-03T00:56:05.836Z,22.15
2024-03-03T00:58:32.145Z,22.14
2024-03-03T01:00:58.649Z,22.15
2024-03-03T01:03:25.022Z,22.15
2024-03-03T01:05:51.476Z,22.14
2024-03-03T01:08:17.890Z,22.14
2024-03-03T01:10:44.341Z,22.15
2024-03-03T01:13:12.798Z,22.15
2024-03-03T01:15:37.319Z,22.15
2024-03-03T01:18:03.642Z,22.14
2024-03-03T01:20:29.942Z,22.14
2024-03-03T01:22:56.283Z,22.13
2024-03-03T01:25:22.639Z,22.14
2024-03-03T01:27:49.112Z,22.13
2024-03-03T01:30:15.401Z,22.12
2024-03-03T01:32:41.737Z,22.11
2024-03-03T01:35:08.021Z,22.11
2024-03-03T01:37:34.509Z,22.12
2024-03-03T01:40:00.942Z,22.11
2024-03-03T01:42:27.418Z,22.14
2024-03-03T01:44:53.867Z,22.13
2024-03-03T01:47:20.231Z,22.12
2024-03-03T01:49:46.645Z,22.13
2024-03-03T01:52:12.999Z,22.11
2024-03-03T01:54:39.464Z,22.11
2024-03-03T01:57:05.735Z,22.11
2024-03-03T01:59:32.050Z,22.12
2024-03-03T02:01:58.461Z,22.10
2024-03-03T02:04:24.923Z,22.11
2024-03-03T02:09:29.594Z,22.11
2024-03-03T02:11:56.031Z,22.11
2024-03-03T02:14:22.465Z,22.09
2024-03-03T02:16:48.910Z,22.11
2024-03-03T02:19:15.281Z,22.09
2024-03-03T02:21:41.653Z,22.08
2024-03-03T02:24:08.071Z,22.08
2024-03-03T02:26:34.524Z,22.09
2024-03-03T02:29:01.116Z,22.08
2024-03-03T02:31:27.437Z,22.08
2024-03-03T02:33:53.730Z,22.07
2024-03-03T02:36:20.017Z,22.07
2024-03-03T02:38:46.477Z,22.07
2024-03-03T02:41:12.975Z,22.07
2024-03-03T02:43:39.272Z,22.07
2024-03-03T02:46:05.759Z,22.07
2024-03-03T02:48:32.111Z,22.06
2024-03-03T02:50:58.571Z,22.05
2024-03-03T02:53:25.002Z,22.04
2024-03-03T02:55:51.440Z,22.05
2024-03-03T02:58:17.906Z,22.06
2024-03-03T03:00:44.254Z,22.07
2024-03-03T03:03:10.675Z,22.07
2024-03-03T03:05:37.061Z,22.07
2024-03-03T03:08:03.548Z,22.07
2024-03-03T03:10:29.902Z,22.10
2024-03-03T03:12:56.182Z,22.10
2024-03-03T03:15:22.498Z,22.11
2024-03-03T03:17:48.933Z,22.12
2024-03-03T03:20:15.226Z,22.13
2024-03-03T03:22:41.678Z,22.12
2024-03-03T03:25:08.165Z,22.15
2024-03-03T03:27:34.413Z,22.16
2024-03-03T03:30:01.040Z,22.14
2024-03-03T03:32:27.480Z,22.16
2024-03-03T03:34:53.948Z,22.13
2024-03-03T03:37:20.270Z,22.13
2024-03-03T03:39:46.588Z,22.13
2024-03-03T03:42:12.894Z,22.12
2024-03-03T03:44:39.243Z,22.12
2024-03-03T03:47:05.710Z,22.11
2024-03-03T03:49:32.038Z,22.10
2024-03-03T03:51:58.538Z,22.11
2024-03-03T03:54:24.824Z,22.09
2024-03-03T03:56:51.406Z,22.10
2024-03-03T03:59:17.675Z,22.11
2024-03-03T04:01:44.128Z,22.07
2024-03-03T04:04:10.371Z,22.06
2024-03-03T04:06:36.671Z,22.06
2024-03-03T04:09:03.011Z,22.07
2024-03-03T04:11:29.382Z,22.07
2024-03-03T04:13:55.763Z,22.06
2024-03-03T04:16:22.462Z,22.05
2024-03-03T04:18:48.615Z,22.04
2024-03-03T04:21:14.920Z,22.05
2024-03-03T04:23:41.289Z,22.05
2024-03-03T04:26:07.660Z,22.06
2024-03-03T04:28:33.965Z,22.05
2024-03-03T04:31:00.380Z,22.05
2024-03-03T04:33:26.701Z,22.03
2024-03-03T04:35:53.011Z,22.03
2024-03-03T04:38:19.547Z,22.03
2024-03-03T04:40:45.974Z,22.02
2024-03-03T04:43:12.255Z,22.03
2024-03-03T04:45:38.617Z,22.03
2024-03-03T04:48:05.052Z,22.03
2024-03-03T04:50:31.439Z,22.04
2024-03-03T04:52:57.864Z,22.01
2024-03-03T04:55:24.366Z,22.02
2024-03-03T04:57:50.821Z,22.02
2024-03-03T05:00:17.091Z,22.02
2024-03-03T05:02:43.414Z,22.01
2024-03-03T05:05:09.762Z,22.02
2024-03-03T05:07:36.179Z,22.03
2024-03-03T05:10:02.576Z,22.02
2024-03-03T05:12:28.933Z,22.02
2024-03-03T05:14:55.264Z,22.03
2024-03-03T05:17:21.687Z,22.02
2024-03-03T05:19:48.031Z,22.01
2024-03-03T05:22:14.506Z,22.01
2024-03-03T05:24:41.085Z,22.01
2024-03-03T05:27:07.253Z,22.01
2024-03-03T05:29:33.579Z,22.00
2024-03-03T05:31:59.988Z,22.00
2024-03-03T05:34:26.479Z,22.01
2024-03-03T05:36:52.900Z,22.02
2024-03-03T05:39:19.216Z,22.02
2024-03-03T05:41:45.622Z,22.02
2024-03-03T05:44:12.070Z,22.02
2024-03-03T05:46:38.496Z,22.02
2024-03-03T05:49:04.974Z,22.02
2024-03-03T05:51:31.250Z,22.00
2024-03-03T05:53:57.583Z,22.03
2024-03-03T05:56:23.920Z,22.03
2024-03-03T05:58:50.242Z,22.02
2024-03-03T06:01:16.653Z,22.01
2024-03-03T06:03:43.110Z,22.02
2024-03-03T06:06:09.430Z,22.02
2024-03-03T06:08:35.926Z,22.01
2024-03-03T06:11:02.368Z,22.01
2024-03-03T06:13:28.740Z,22.02
2024-03-03T06:15:55.219Z,22.01
2024-03-03T06:18:21.706Z,22.02
2024-03-03T06:20:48.146Z,22.00
2024-03-03T06:23:14.460Z,22.01
2024-03-03T06:25:40.815Z,22.01
2024-03-03T06:28:07.265Z,22.02
2024-03-03T06:30:33.579Z,22.02
2024-03-03T06:33:00.007Z,22.02
2024-03-03T06:35:26.290Z,22.01
2024-03-03T06:37:52.613Z,22.02
2024-03-03T06:40:19.173Z,22.02
2024-03-03T06:42:45.572Z,22.03
2024-03-03T06:45:11.875Z,22.02
2024-03-03T06:47:38.225Z,22.03
2024-03-03T06:50:04.618Z,22.02
2024-03-03T06:52:30.985Z,22.02
2024-03-03T06:54:57.411Z,22.03
2024-03-03T06:57:23.824Z,22.03
2024-03-03T06:59:50.172Z,22.03
2024-03-03T07:02:16.499Z,22.04
2024-03-03T07:04:43.047Z,22.03
2024-03-03T07:07:09.364Z,22.03
2024-03-03T07:09:35.783Z,22.03
2024-03-03T07:12:02.214Z,22.04
2024-03-03T07:14:28.506Z,22.05
2024-03-03T07:16:54.838Z,22.05
2024-03-03T07:19:21.356Z,22.04
2024-03-03T07:21:47.813Z,22.04
2024-03-03T07:24:14.175Z,22.04
2024-03-03T07:26:40.620Z,22.05
2024-03-03T07:29:06.956Z,22.05
2024-03-03T07:31:33.326Z,22.05
2024-03-03T07:33:59.817Z,22.06
2024-03-03T07:36:26.402Z,22.06
2024-03-03T07:38:52.767Z,22.06
2024-03-03T07:41:19.224Z,22.05
2024-03-03T07:43:45.662Z,22.07
2024-03-03T07:46:11.976Z,22.07
2024-03-03T07:48:38.418Z,22.07
2024-03-03T07:51:04.759Z,22.07
2024-03-03T07:53:31.181Z,22.06
2024-03-03T07:55:57.622Z,22.06
2024-03-03T07:58:24.126Z,22.08
2024-03-03T08:00:50.642Z,22.06
2024-03-03T08:03:16.799Z,22.08
2024-03-03T08:05:43.241Z,22.06
2024-03-03T08:08:09.661Z,22.08
2024-03-03T08:10:36.087Z,22.07
2024-03-03T08:13:02.678Z,22.10
2024-03-03T08:15:28.973Z,22.10
2024-03-03T08:17:56.888Z,22.10
2024-03-03T08:20:21.844Z,22.11
2024-03-03T08:22:48.303Z,22.11
2024-03-03T08:25:14.825Z,22.12
2024-03-03T08:27:41.147Z,22.12
2024-03-03T08:30:07.568Z,22.12
2024-03-03T08:32:33.972Z,22.12
2024-03-03T08:35:00.329Z,22.11
2024-03-03T08:37:26.794Z,22.11
2024-03-03T08:39:53.277Z,22.11
2024-03-03T08:42:19.653Z,22.13
2024-03-03T08:44:46.076Z,22.11
2024-03-03T08:47:12.418Z,22.11
2024-03-03T08:49:38.854Z,22.14
2024-03-03T08:52:05.182Z,22.14
2024-03-03T08:54:31.492Z,22.14
2024-03-03T08:56:57.963Z,22.12
2024-03-03T08:59:24.282Z,22.14
2024-03-03T09:01:52.013Z,22.14
2024-03-03T09:04:17.086Z,22.15
2024-03-03T09:06:43.558Z,22.14
2024-03-03T09:09:09.784Z,22.16
2024-03-03T09:11:36.261Z,22.18
2024-03-03T09:14:02.561Z,22.18
2024-03-03T09:16:29.136Z,22.17
2024-03-03T09:18:55.602Z,22.18
2024-03-03T09:21:21.765Z,22.20
2024-03-03T09:23:48.253Z,22.19
2024-03-03T09:26:14.557Z,22.18
2024-03-03T09:28:40.963Z,22.18
2024-03-03T09:31:07.475Z,22.18
2024-03-03T09:33:33.846Z,22.22
2024-03-03T09:36:00.248Z,22.23
2024-03-03T09:38:26.660Z,22.22
2024-03-03T09:40:53.109Z,22.23
2024-03-03T09:43:19.606Z,22.22
2024-03-03T09:45:46.034Z,22.22
2024-03-03T09:48:12.354Z,22.24
2024-03-03T09:50:38.776Z,22.24
2024-03-03T09:53:05.164Z,22.24
2024-03-03T09:55:31.703Z,22.26
2024-03-03T09:57:57.978Z,22.25
2024-03-03T10:00:24.317Z,22.24
2024-03-03T10:02:50.811Z,22.26
2024-03-03T10:05:17.169Z,22.28
2024-03-03T10:07:43.599Z,22.27
2024-03-03T10:10:10.214Z,22.28
2024-03-03T10:12:36.404Z,22.29
2024-03-03T10:15:02.882Z,22.28
2024-03-03T10:17:29.434Z,22.31
2024-03-03T10:19:55.829Z,22.32
2024-03-03T10:22:22.390Z,22.34
2024-03-03T10:24:48.759Z,22.34
2024-03-03T10:27:15.154Z,22.36
2024-03-03T10:29:41.615Z,22.39
2024-03-03T10:32:08.020Z,22.39
2024-03-03T10:34:34.570Z,22.42
2024-03-03T10:37:00.948Z,22.44
2024-03-03T10:39:27.222Z,22.45
2024-03-03T10:41:53.602Z,22.46
2024-03-03T10:44:20.092Z,22.48
2024-03-03T10:46:46.417Z,22.49
2024-03-03T10:49:12.867Z,22.50
2024-03-03T10:51:39.279Z,22.52
2024-03-03T10:54:05.637Z,22.54
2024-03-03T10:56:32.150Z,22.56
2024-03-03T10:58:58.583Z,22.57
2024-03-03T11:01:25.049Z,22.59
2024-03-03T11:03:51.501Z,22.60
2024-03-03T11:06:17.779Z,22.62
2024-03-03T11:08:44.112Z,22.65
2024-03-03T11:11:10.530Z,22.65
2024-03-03T11:13:36.971Z,22.67
2024-03-03T11:16:03.394Z,22.72
2024-03-03T11:18:29.837Z,22.73
2024-03-03T11:20:56.189Z,22.76
2024-03-03T11:23:22.703Z,22.81
2024-03-03T11:25:49.139Z,22.82
2024-03-03T11:28:15.505Z,22.87
2024-03-03T11:30:41.902Z,22.88
2024-03-03T11:33:08.280Z,22.93
2024-03-03T11:35:34.579Z,22.95
2024-03-03T11:38:00.901Z,22.98
2024-03-03T11:40:27.284Z,23.00
2024-03-03T11:42:53.589Z,23.06
2024-03-03T11:45:19.938Z,23.07
2024-03-03T11:47:46.276Z,23.11
2024-03-03T11:50:12.749Z,23.14
2024-03-03T11:52:39.088Z,23.19
2024-03-03T11:55:05.474Z,23.20
2024-03-03T11:57:31.758Z,23.25
2024-03-03T11:59:58.086Z,23.26
2024-03-03T12:02:27.378Z,23.31
2024-03-03T12:04:53.817Z,23.35
2024-03-03T12:07:20.405Z,23.36
2024-03-03T12:09:46.867Z,23.41
2024-03-03T12:12:13.114Z,23.43
2024-03-03T12:14:39.542Z,23.49
2024-03-03T12:17:05.864Z,23.53
2024-03-03T12:19:32.360Z,23.55
2024-03-03T12:21:58.849Z,23.62
2024-03-03T12:24:25.082Z,23.67
2024-03-03T12:26:51.495Z,23.75
2024-03-03T12:29:17.938Z,23.79
2024-03-03T12:31:44.436Z,23.85
2024-03-03T12:34:10.846Z,23.88
2024-03-03T12:36:37.240Z,23.91
2024-03-03T12:39:03.539Z,23.95
2024-03-03T12:41:29.890Z,24.02
2024-03-03T12:43:56.343Z,24.08
2024-03-03T12:46:22.714Z,24.10
2024-03-03T12:48:49.185Z,24.17
2024-03-03T12:51:15.692Z,24.18
2024-03-03T12:53:42.141Z,24.24
2024-03-03T12:56:10.211Z,24.24
2024-03-03T12:58:35.182Z,24.38
2024-03-03T13:01:01.556Z,24.39
2024-03-03T13:03:27.918Z,24.45
2024-03-03T13:05:54.349Z,24.41
2024-03-03T13:08:20.777Z,24.34
2024-03-03T13:10:47.375Z,24.50
2024-03-03T13:13:13.648Z,24.55
2024-03-03T13:15:47.995Z,24.43
2024-03-03T13:18:06.546Z,24.40
2024-03-03T13:20:32.934Z,24.36
2024-03-03T13:22:59.362Z,24.35
2024-03-03T13:25:25.915Z,24.33
2024-03-03T13:27:52.163Z,24.28
2024-03-03T13:30:18.567Z,24.25
2024-03-03T13:32:45.001Z,24.22
2024-03-03T13:35:11.425Z,24.20
2024-03-03T13:37:37.783Z,24.21
2024-03-03T13:40:04.290Z,24.23
2024-03-03T13:42:30.619Z,24.20
2024-03-03T13:44:57.055Z,24.24
2024-03-03T13:47:23.393Z,24.22
2024-03-03T13:49:49.783Z,24.17
2024-03-03T13:52:16.146Z,24.13
2024-03-03T13:54:42.498Z,24.12
2024-03-03T13:57:08.934Z,24.09
2024-03-03T13:59:35.379Z,24.05
2024-03-03T14:02:01.858Z,24.06
2024-03-03T14:04:28.260Z,24.03
2024-03-03T14:06:54.573Z,24.02
2024-03-03T14:09:20.979Z,24.01
2024-03-03T14:11:47.440Z,23.99
2024-03-03T14:14:13.890Z,23.96
2024-03-03T14:16:40.294Z,23.94
2024-03-03T14:19:06.927Z,23.95
2024-03-03T14:21:33.883Z,23.94
2024-03-03T14:24:00.204Z,23.93
2024-03-03T14:26:26.978Z,23.93
2024-03-03T14:28:53.085Z,23.92
2024-03-03T14:31:19.508Z,23.92
2024-03-03T14:33:45.767Z,23.91
2024-03-03T14:36:12.169Z,23.88
2024-03-03T14:38:38.585Z,23.87
2024-03-03T14:41:05.042Z,23.87
2024-03-03T14:43:31.390Z,23.91
2024-03-03T14:45:57.737Z,23.91
2024-03-03T14:48:24.137Z,23.91
2024-03-03T14:50:50.558Z,23.89
2024-03-03T14:53:16.863Z,23.88
2024-03-03T14:55:43.333Z,23.89
2024-03-03T14:58:09.820Z,23.87
2024-03-03T15:00:36.183Z,23.86
2024-03-03T15:03:02.656Z,23.84
2024-03-03T15:05:29.064Z,23.84
2024-03-03T15:07:55.479Z,23.82
2024-03-03T15:10:22.024Z,23.80
2024-03-03T15:12:48.459Z,23.82
2024-03-03T15:15:14.805Z,23.79
2024-03-03T15:17:41.288Z,23.79
2024-03-03T15:20:07.639Z,23.79
2024-03-03T15:22:33.939Z,23.76
2024-03-03T15:25:00.379Z,23.75
2024-03-03T15:27:26.730Z,23.75
2024-03-03T15:29:53.014Z,23.75
2024-03-03T15:32:21.436Z,23.74
2024-03-03T15:34:45.694Z,23.75
2024-03-03T15:37:12.107Z,23.73
2024-03-03T15:39:40.009Z,23.70
2024-03-03T15:42:04.830Z,23.73
2024-03-03T15:44:31.283Z,23.71
2024-03-03T15:46:57.651Z,23.70
2024-03-03T15:49:24.101Z,23.69
2024-03-03T15:51:50.500Z,23.68
2024-03-03T15:54:16.907Z,23.69
2024-03-03T15:56:43.257Z,23.67
2024-03-03T15:59:09.633Z,23.67
2024-03-03T16:01:36.177Z,23.68
2024-03-03T16:04:02.566Z,23.66
2024-03-03T16:06:28.971Z,23.64
2024-03-03T16:08:55.353Z,23.62
2024-03-03T16:11:21.707Z,23.63
2024-03-03T16:13:48.076Z,23.64
2024-03-03T16:16:14.562Z,23.63
2024-03-03T16:18:40.896Z,23.63
2024-03-03T16:21:07.194Z,23.62
2024-03-03T16:23:33.563Z,23.59
2024-03-03T16:25:59.946Z,23.58
2024-03-03T16:28:26.521Z,23.57
2024-03-03T16:30:52.787Z,23.59
2024-03-03T16:33:19.129Z,23.55
2024-03-03T16:35:45.792Z,23.55
2024-03-03T16:38:11.919Z,23.56
2024-03-03T16:40:38.369Z,23.54
2024-03-03T16:43:04.789Z,23.54
2024-03-03T16:45:31.206Z,23.53
2024-03-03T16:47:57.694Z,23.52
2024-03-03T16:50:24.050Z,23.50
2024-03-03T16:52:50.447Z,23.47
2024-03-03T16:55:16.994Z,23.45
2024-03-03T16:57:43.418Z,23.46
2024-03-03T17:00:09.937Z,23.44
2024-03-03T17:02:36.244Z,23.44
2024-03-03T17:05:02.577Z,23.44
2024-03-03T17:07:30.341Z,23.44
2024-03-03T17:09:55.532Z,23.44
2024-03-03T17:12:21.827Z,23.41
2024-03-03T17:14:48.203Z,23.42
2024-03-03T17:17:14.541Z,23.41
2024-03-03T17:19:40.867Z,23.41
2024-03-03T17:22:07.424Z,23.40
2024-03-03T17:24:33.914Z,23.38
2024-03-03T17:27:00.272Z,23.38
2024-03-03T17:29:26.655Z,23.36
2024-03-03T17:31:52.984Z,23.37
2024-03-03T17:34:19.556Z,23.35
2024-03-03T17:36:45.962Z,23.33
2024-03-03T17:39:12.332Z,23.35
2024-03-03T17:41:38.670Z,23.33
2024-03-03T17:44:04.999Z,23.32
2024-03-03T17:46:31.452Z,23.33
2024-03-03T17:48:57.881Z,23.33
2024-03-03T17:51:24.294Z,23.32
2024-03-03T17:53:50.724Z,23.31
2024-03-03T17:56:17.050Z,23.31
2024-03-03T17:58:43.560Z,23.29
2024-03-03T18:01:09.913Z,23.27
2024-03-03T18:03:36.369Z,23.28
2024-03-03T18:06:02.693Z,23.26
2024-03-03T18:08:29.051Z,23.26
2024-03-03T18:10:55.490Z,23.23
2024-03-03T18:13:21.872Z,23.25
2024-03-03T18:15:48.423Z,23.25
2024-03-03T18:18:14.859Z,23.22
2024-03-03T18:20:41.245Z,23.22
2024-03-03T18:23:07.539Z,23.22
2024-03-03T18:25:34.167Z,23.20
2024-03-03T18:28:00.504Z,23.21
2024-03-03T18:30:26.767Z,23.19
2024-03-03T18:32:53.302Z,23.19
2024-03-03T18:35:19.681Z,23.17
2024-03-03T18:37:46.158Z,23.20
2024-03-03T18:40:12.626Z,23.18
2024-03-03T18:42:38.894Z,23.19
2024-03-03T18:45:05.368Z,23.17
2024-03-03T18:47:31.765Z,23.14
2024-03-03T18:49:58.182Z,23.15
2024-03-03T18:52:24.734Z,23.19
2024-03-03T18:54:51.130Z,23.15
2024-03-03T18:57:17.478Z,23.16
2024-03-03T18:59:43.839Z,23.13
2024-03-03T19:02:10.283Z,23.11
2024-03-03T19:04:36.712Z,23.13
2024-03-03T19:07:03.198Z,23.11
2024-03-03T19:09:29.550Z,23.11
2024-03-03T19:11:56.040Z,23.11
2024-03-03T19:14:22.459Z,23.11
2024-03-03T19:16:48.798Z,23.08
2024-03-03T19:19:15.205Z,23.09
2024-03-03T19:21:41.629Z,23.07
2024-03-03T19:24:07.943Z,23.08
2024-03-03T19:26:34.372Z,23.09
2024-03-03T19:29:00.807Z,23.08
2024-03-03T19:31:27.337Z,23.06
2024-03-03T19:33:53.730Z,23.06
2024-03-03T19:36:20.110Z,23.05
2024-03-03T19:38:46.609Z,23.03
2024-03-03T19:41:12.970Z,23.04
2024-03-03T19:43:39.486Z,23.03
2024-03-03T19:46:05.831Z,23.02
2024-03-03T19:48:32.279Z,22.99
2024-03-03T19:51:01.774Z,22.98
2024-03-03T19:53:28.189Z,22.98
2024-03-03T19:55:54.490Z,22.98
2024-03-03T19:58:20.888Z,22.97
2024-03-03T20:00:47.155Z,22.95
2024-03-03T20:03:13.498Z,22.94
2024-03-03T20:05:39.988Z,22.95
2024-03-03T20:08:06.769Z,22.94
2024-03-03T20:10:32.748Z,22.94
2024-03-03T20:12:59.066Z,22.95
2024-03-03T20:15:25.482Z,22.91
2024-03-03T20:17:51.843Z,22.90
2024-03-03T20:20:18.255Z,22.91
2024-03-03T20:22:44.692Z,22.90
2024-03-03T20:25:11.135Z,22.88
2024-03-03T20:27:37.549Z,22.90
2024-03-03T20:30:03.935Z,22.89
2024-03-03T20:32:30.331Z,22.87
2024-03-03T20:34:56.679Z,22.88
2024-03-03T20:37:23.088Z,22.88
2024-03-03T20:39:49.517Z,22.86
2024-03-03T20:42:15.935Z,22.84
2024-03-03T20:44:42.366Z,22.84
2024-03-03T20:47:08.811Z,22.82
2024-03-03T20:49:35.229Z,22.83
2024-03-03T20:52:01.603Z,22.83
2024-03-03T20:54:28.010Z,22.81
2024-03-03T20:56:54.388Z,22.81
2024-03-03T20:59:20.784Z,22.80
2024-03-03T21:01:47.157Z,22.80
2024-03-03T21:04:13.558Z,22.79
2024-03-03T21:06:39.906Z,22.79
2024-03-03T21:09:06.313Z,22.79
2024-03-03T21:11:32.704Z,22.79
2024-03-03T21:13:59.295Z,22.77
2024-03-03T21:16:25.400Z,22.77
2024-03-03T21:18:51.877Z,22.77
2024-03-03T21:21:18.276Z,22.76
2024-03-03T21:23:44.708Z,22.73
2024-03-03T21:26:11.143Z,22.75
2024-03-03T21:28:37.604Z,22.72
2024-03-03T21:31:04.033Z,22.73
2024-03-03T21:33:30.433Z,22.72
2024-03-03T21:35:56.881Z,22.72
2024-03-03T21:38:23.312Z,22.71
2024-03-03T21:40:49.794Z,22.72
2024-03-03T21:43:16.115Z,22.70
2024-03-03T21:45:42.428Z,22.70
2024-03-03T21:48:08.833Z,22.69
2024-03-03T21:50:35.099Z,22.69
2024-03-03T21:53:01.490Z,22.68
2024-03-03T21:55:27.847Z,22.67
2024-03-03T21:57:54.159Z,22.67
2024-03-03T22:00:20.591Z,22.67
2024-03-03T22:02:46.965Z,22.66
2024-03-03T22:05:13.269Z,22.65
2024-03-03T22:07:39.731Z,22.64
2024-03-03T22:10:06.186Z,22.64
2024-03-03T22:12:32.552Z,22.64
2024-03-03T22:14:58.865Z,22.62
2024-03-03T22:17:25.384Z,22.63
2024-03-03T22:19:51.745Z,22.62
2024-03-03T22:22:18.195Z,22.62
2024-03-03T22:24:44.617Z,22.60
2024-03-03T22:27:11.033Z,22.61
2024-03-03T22:29:37.370Z,22.61
2024-03-03T22:32:03.813Z,22.59
2024-03-03T22:34:30.160Z,22.58
2024-03-03T22:36:56.642Z,22.58
2024-03-03T22:39:23.045Z,22.57
2024-03-03T22:41:49.429Z,22.56
2024-03-03T22:44:15.879Z,22.57
2024-03-03T22:46:42.347Z,22.56
2024-03-03T22:49:08.784Z,22.55
2024-03-03T22:51:35.103Z,22.54
2024-03-03T22:54:01.507Z,22.53
2024-03-03T22:56:27.824Z,22.53
2024-03-03T22:58:54.281Z,22.53
2024-03-03T23:01:20.727Z,22.53
2024-03-03T23:03:46.998Z,22.51
2024-03-03T23:06:13.476Z,22.54
2024-03-03T23:08:39.792Z,22.50
2024-03-03T23:11:06.247Z,22.50
2024-03-03T23:13:32.610Z,22.49
2024-03-03T23:15:58.920Z,22.49
2024-03-03T23:18:25.336Z,22.48
2024-03-03T23:20:51.675Z,22.48
2024-03-03T23:23:18.161Z,22.48
2024-03-03T23:25:44.563Z,22.47
2024-03-03T23:28:10.883Z,22.47
2024-03-03T23:30:37.285Z,22.46
2024-03-03T23:33:03.866Z,22.46
2024-03-03T23:35:30.262Z,22.46
2024-03-03T23:37:56.702Z,22.44
2024-03-03T23:40:23.160Z,22.45
2024-03-03T23:42:49.546Z,22.43
2024-03-03T23:45:15.984Z,22.43
2024-03-03T23:47:42.336Z,22.43
2024-03-03T23:50:08.812Z,22.43
2024-03-03T23:52:35.138Z,22.41
2024-03-03T23:55:01.598Z,22.42
2024-03-03T23:57:27.952Z,22.42
2024-03-03T23:59:54.380Z,22.42
